createdAt,value
2019-05-12T00:00:22.880Z,61.00
2019-05-12T00:02:52.284Z,61.50
2019-05-12T00:05:21.722Z,61.10
2019-05-12T00:07:51.009Z,61.20
2019-05-12T00:10:20.698Z,61.40
2019-05-12T00:12:50.114Z,61.70
2019-05-12T00:15:19.688Z,61.70
2019-05-12T00:17:49.162Z,61.60
2019-05-12T00:20:18.649Z,61.60
2019-05-12T00:22:51.548Z,61.50
2019-05-12T00:25:20.828Z,61.60
2019-05-12T00:27:50.120Z,61.90
2019-05-12T00:30:40.658Z,62.00
2019-05-12T00:33:09.947Z,62.10
2019-05-12T00:35:39.362Z,62.30
2019-05-12T00:38:09.330Z,62.60
2019-05-12T00:40:39.720Z,62.80
2019-05-12T00:43:09.547Z,63.00
2019-05-12T00:45:39.213Z,63.50
2019-05-12T00:48:09.476Z,63.60
2019-05-12T00:50:38.898Z,63.70
2019-05-12T00:53:09.314Z,63.70
2019-05-12T00:55:39.164Z,63.70
2019-05-12T00:58:09.144Z,63.90
2019-05-12T01:00:41.131Z,64.20
2019-05-12T01:03:09.715Z,64.40
2019-05-12T01:05:39.054Z,64.60
2019-05-12T01:08:09.307Z,64.70
2019-05-12T01:10:39.411Z,65.00
2019-05-12T01:13:09.176Z,65.20
2019-05-12T01:15:40.191Z,65.40
2019-05-12T01:18:09.830Z,65.40
2019-05-12T01:20:39.378Z,65.60
2019-05-12T01:23:09.060Z,65.70
2019-05-12T01:25:39.501Z,66.00
2019-05-12T01:28:09.609Z,66.40
2019-05-12T01:30:39.416Z,66.50
2019-05-12T01:33:09.098Z,66.80
2019-05-12T01:35:39.005Z,67.00
2019-05-12T01:38:08.565Z,67.10
2019-05-12T01:40:39.463Z,67.30
2019-05-12T01:43:09.135Z,67.10
2019-05-12T01:45:38.516Z,67.20
2019-05-12T01:48:09.067Z,67.30
2019-05-12T01:50:39.133Z,67.20
2019-05-12T01:53:08.777Z,67.20
2019-05-12T01:55:39.076Z,67.30
2019-05-12T01:58:08.782Z,67.50
2019-05-12T02:00:38.999Z,67.80
2019-05-12T02:03:09.416Z,67.80
2019-05-12T02:05:41.750Z,67.90
2019-05-12T02:08:15.475Z,67.90
2019-05-12T02:10:44.728Z,68.20
2019-05-12T02:13:14.027Z,68.30
2019-05-12T02:15:43.382Z,68.30
2019-05-12T02:18:12.715Z,68.30
2019-05-12T02:20:42.082Z,68.40
2019-05-12T02:23:11.383Z,68.30
2019-05-12T02:25:40.721Z,68.50
2019-05-12T02:28:10.073Z,68.70
2019-05-12T02:30:41.523Z,68.40
2019-05-12T02:33:10.369Z,68.50
2019-05-12T02:35:39.659Z,68.40
2019-05-12T02:38:09.040Z,68.50
2019-05-12T02:40:38.354Z,68.60
2019-05-12T02:43:07.693Z,68.60
2019-05-12T02:45:36.976Z,68.80
2019-05-12T02:48:06.298Z,68.90
2019-05-12T02:50:37.666Z,69.00
2019-05-12T02:53:07.585Z,69.10
2019-05-12T02:55:37.107Z,69.00
2019-05-12T02:58:06.799Z,69.20
2019-05-12T03:00:37.083Z,69.10
2019-05-12T03:03:09.062Z,69.20
2019-05-12T03:05:39.948Z,69.20
2019-05-12T03:08:09.262Z,69.30
2019-05-12T03:10:38.675Z,69.30
2019-05-12T03:13:07.925Z,69.40
2019-05-12T03:15:37.756Z,69.70
2019-05-12T03:18:07.228Z,70.70
2019-05-12T03:20:36.712Z,69.90
2019-05-12T03:23:06.916Z,69.70
2019-05-12T03:25:37.181Z,69.70
2019-05-12T03:28:09.308Z,69.70
2019-05-12T03:30:40.424Z,69.90
2019-05-12T03:33:10.952Z,70.00
2019-05-12T03:35:43.925Z,70.10
2019-05-12T03:38:14.472Z,69.90
2019-05-12T03:40:45.021Z,69.90
2019-05-12T03:43:14.536Z,70.10
2019-05-12T03:45:45.186Z,70.30
2019-05-12T03:48:15.208Z,70.30
2019-05-12T03:50:45.993Z,70.10
2019-05-12T03:53:16.057Z,70.20
2019-05-12T03:55:46.786Z,70.20
2019-05-12T03:58:16.577Z,70.40
2019-05-12T04:00:45.978Z,70.70
2019-05-12T04:03:15.567Z,70.90
2019-05-12T04:05:45.633Z,70.80
2019-05-12T04:08:15.852Z,71.00
2019-05-12T04:10:45.809Z,71.30
2019-05-12T04:13:15.481Z,71.60
2019-05-12T04:15:45.751Z,71.80
2019-05-12T04:18:16.224Z,71.90
2019-05-12T04:20:45.913Z,72.10
2019-05-12T04:23:15.661Z,72.10
2019-05-12T04:25:52.294Z,72.10
2019-05-12T04:28:16.563Z,72.00
2019-05-12T04:30:45.888Z,72.20
2019-05-12T04:33:15.828Z,72.20
2019-05-12T04:35:45.521Z,72.10
2019-05-12T04:38:15.340Z,72.20
2019-05-12T04:40:45.162Z,72.20
2019-05-12T04:43:14.979Z,72.30
2019-05-12T04:45:45.097Z,72.40
2019-05-12T04:48:20.185Z,72.30
2019-05-12T04:50:46.399Z,72.20
2019-05-12T04:53:15.698Z,72.30
2019-05-12T04:55:45.061Z,72.50
2019-05-12T04:58:15.587Z,72.50
2019-05-12T05:00:45.444Z,72.30
2019-05-12T05:03:14.704Z,72.20
2019-05-12T05:05:44.587Z,72.10
2019-05-12T05:08:16.865Z,72.10
2019-05-12T05:10:45.032Z,72.20
2019-05-12T05:13:14.922Z,72.20
2019-05-12T05:15:44.826Z,72.40
2019-05-12T05:18:14.244Z,72.60
2019-05-12T05:20:43.955Z,72.90
2019-05-12T05:23:14.134Z,73.00
2019-05-12T05:25:43.674Z,73.00
2019-05-12T05:28:14.602Z,73.00
2019-05-12T05:30:44.247Z,72.90
2019-05-12T05:33:14.516Z,72.80
2019-05-12T05:35:44.088Z,73.70
2019-05-12T05:38:18.728Z,73.00
2019-05-12T05:40:45.508Z,73.10
2019-05-12T05:43:18.453Z,73.30
2019-05-12T05:45:46.147Z,73.30
2019-05-12T05:48:15.456Z,73.20
2019-05-12T05:50:44.890Z,73.20
2019-05-12T05:53:19.364Z,73.20
2019-05-12T05:55:45.258Z,73.10
2019-05-12T05:58:15.482Z,73.20
2019-05-12T06:00:44.902Z,73.20
2019-05-12T06:03:22.774Z,73.30
2019-05-12T06:05:45.206Z,73.30
2019-05-12T06:08:20.295Z,73.50
2019-05-12T06:10:45.967Z,74.10
2019-05-12T06:13:15.221Z,73.50
2019-05-12T06:15:44.509Z,74.70
2019-05-12T06:18:13.786Z,74.20
2019-05-12T06:20:43.743Z,75.50
2019-05-12T06:23:14.739Z,74.70
2019-05-12T06:25:49.374Z,74.60
2019-05-12T06:28:15.122Z,74.40
2019-05-12T06:30:49.360Z,74.40
2019-05-12T06:33:15.434Z,74.40
2019-05-12T06:35:45.479Z,74.70
2019-05-12T06:38:14.959Z,75.00
2019-05-12T06:40:45.279Z,74.90
2019-05-12T06:43:14.958Z,74.80
2019-05-12T06:45:45.639Z,74.70
2019-05-12T06:48:19.394Z,74.30
2019-05-12T06:50:46.149Z,74.20
2019-05-12T06:53:20.293Z,74.20
2019-05-12T06:55:46.609Z,74.30
2019-05-12T06:58:26.303Z,74.90
2019-05-12T07:00:46.914Z,75.10
2019-05-12T07:03:19.557Z,75.10
2019-05-12T07:05:47.299Z,75.40
2019-05-12T07:08:17.901Z,75.60
2019-05-12T07:11:00.832Z,75.80
2019-05-12T07:13:23.245Z,76.50
2019-05-12T07:15:50.765Z,75.50
2019-05-12T07:18:24.411Z,75.40
2019-05-12T07:20:53.798Z,75.30
2019-05-12T07:23:25.945Z,75.20
2019-05-12T07:25:54.984Z,75.30
2019-05-12T07:28:24.653Z,75.40
2019-05-12T07:30:54.494Z,75.60
2019-05-12T07:33:24.304Z,75.70
2019-05-12T07:36:00.938Z,75.60
2019-05-12T07:38:26.381Z,75.70
2019-05-12T07:41:00.770Z,75.60
2019-05-12T07:43:29.279Z,75.50
2019-05-12T07:46:02.374Z,75.60
2019-05-12T07:48:30.292Z,75.70
2019-05-12T07:51:00.762Z,75.70
2019-05-12T07:53:30.113Z,75.80
2019-05-12T07:55:59.493Z,75.70
2019-05-12T07:58:28.748Z,75.50
2019-05-12T08:01:02.600Z,75.50
2019-05-12T08:03:28.969Z,75.50
2019-05-12T08:06:01.679Z,75.50
2019-05-12T08:08:29.324Z,75.50
2019-05-12T08:10:58.696Z,75.50
2019-05-12T08:13:31.232Z,75.60
2019-05-12T08:15:58.996Z,75.60
2019-05-12T08:18:30.615Z,75.70
2019-05-12T08:21:00.104Z,75.70
2019-05-12T08:23:29.552Z,75.60
2019-05-12T08:26:05.286Z,75.80
2019-05-12T08:28:37.667Z,75.90
2019-05-12T08:31:00.684Z,75.90
2019-05-12T08:33:30.061Z,75.60
2019-05-12T08:36:05.520Z,75.70
2019-05-12T08:38:30.328Z,75.80
2019-05-12T08:40:59.708Z,75.70
2019-05-12T08:43:28.964Z,75.60
2019-05-12T08:46:00.159Z,75.30
2019-05-12T08:48:29.325Z,75.10
2019-05-12T08:50:58.696Z,75.10
2019-05-12T08:53:28.048Z,75.40
2019-05-12T08:55:57.295Z,75.50
2019-05-12T08:58:33.893Z,75.20
2019-05-12T09:00:57.543Z,75.20
2019-05-12T09:03:30.346Z,75.40
2019-05-12T09:05:57.755Z,75.60
2019-05-12T09:08:27.435Z,75.80
2019-05-12T09:10:56.775Z,76.10
2019-05-12T09:13:26.055Z,76.20
2019-05-12T09:15:55.407Z,76.10
2019-05-12T09:18:33.645Z,75.90
2019-05-12T09:20:55.957Z,75.80
2019-05-12T09:23:25.343Z,76.60
2019-05-12T09:25:57.230Z,75.80
2019-05-12T09:28:25.623Z,75.70
2019-05-12T09:30:54.852Z,75.50
2019-05-12T09:33:29.538Z,75.40
2019-05-12T09:35:55.987Z,75.80
2019-05-12T09:38:26.347Z,76.20
2019-05-12T09:41:00.975Z,76.50
2019-05-12T09:43:26.955Z,76.80
2019-05-12T09:45:56.605Z,76.80
2019-05-12T09:48:26.009Z,77.10
2019-05-12T09:51:00.437Z,77.20
2019-05-12T09:53:26.308Z,77.10
2019-05-12T09:55:58.412Z,76.90
2019-05-12T09:58:27.885Z,77.20
2019-05-12T10:00:57.831Z,77.10
2019-05-12T10:03:30.809Z,77.10
2019-05-12T10:05:58.134Z,77.20
2019-05-12T10:08:29.427Z,77.10
2019-05-12T10:10:58.542Z,77.00
2019-05-12T10:13:30.093Z,76.80
2019-05-12T10:16:04.090Z,76.50
2019-05-12T10:18:29.709Z,76.50
2019-05-12T10:20:58.954Z,76.30
2019-05-12T10:23:28.318Z,76.80
2019-05-12T10:26:01.645Z,76.90
2019-05-12T10:28:28.898Z,76.90
2019-05-12T10:30:58.142Z,76.80
2019-05-12T10:33:27.526Z,76.90
2019-05-12T10:35:59.390Z,76.80
2019-05-12T10:38:27.874Z,76.70
2019-05-12T10:40:57.238Z,76.60
2019-05-12T10:43:26.522Z,76.50
2019-05-12T10:45:55.909Z,76.50
2019-05-12T10:48:25.171Z,76.40
2019-05-12T10:50:54.538Z,76.50
2019-05-12T10:53:23.838Z,76.60
2019-05-12T10:55:54.236Z,76.60
2019-05-12T10:58:24.930Z,76.80
2019-05-12T11:00:58.875Z,76.70
2019-05-12T11:03:25.303Z,76.70
2019-05-12T11:06:02.183Z,76.40
2019-05-12T11:08:27.077Z,76.30
2019-05-12T11:11:01.086Z,77.10
2019-05-12T11:13:27.325Z,76.60
2019-05-12T11:15:56.665Z,76.70
2019-05-12T11:18:30.243Z,76.50
2019-05-12T11:20:57.034Z,76.60
2019-05-12T11:23:26.371Z,76.80
2019-05-12T11:25:55.689Z,76.80
2019-05-12T11:28:24.945Z,76.80
2019-05-12T11:30:54.230Z,77.00
2019-05-12T11:33:23.862Z,77.20
2019-05-12T11:35:54.109Z,77.10
2019-05-12T11:38:24.547Z,77.80
2019-05-12T11:40:53.977Z,77.00
2019-05-12T11:43:24.787Z,77.00
2019-05-12T11:45:54.417Z,76.90
2019-05-12T11:48:23.870Z,76.90
2019-05-12T11:50:54.485Z,77.00
2019-05-12T11:53:30.350Z,76.80
2019-05-12T11:55:55.047Z,76.80
2019-05-12T11:58:24.492Z,76.90
2019-05-12T12:00:58.586Z,77.00
2019-05-12T12:03:26.400Z,77.10
2019-05-12T12:05:55.661Z,77.10
2019-05-12T12:08:26.328Z,77.40
2019-05-12T12:10:56.008Z,77.60
2019-05-12T12:13:29.697Z,77.50
2019-05-12T12:16:00.396Z,78.00
2019-05-12T12:18:27.124Z,77.10
2019-05-12T12:21:02.867Z,77.20
2019-05-12T12:23:27.497Z,77.30
2019-05-12T12:25:56.940Z,77.60
2019-05-12T12:28:26.336Z,77.50
2019-05-12T12:31:00.367Z,77.60
2019-05-12T12:33:30.947Z,77.60
2019-05-12T12:36:00.696Z,77.50
2019-05-12T12:38:28.624Z,77.40
2019-05-12T12:40:57.960Z,77.50
2019-05-12T12:43:27.256Z,77.50
2019-05-12T12:46:21.559Z,77.50
2019-05-12T12:48:51.016Z,77.60
2019-05-12T12:51:20.275Z,77.70
2019-05-12T12:53:49.592Z,77.90
2019-05-12T12:56:25.096Z,78.00
2019-05-12T12:58:49.843Z,78.10
2019-05-12T13:01:26.750Z,78.00
2019-05-12T13:03:50.225Z,77.80
2019-05-12T13:06:19.600Z,78.00
2019-05-12T13:08:48.876Z,78.10
2019-05-12T13:11:32.171Z,78.40
2019-05-12T13:13:49.124Z,78.60
2019-05-12T13:16:18.440Z,78.80
2019-05-12T13:18:47.759Z,79.00
2019-05-12T13:21:17.035Z,79.00
2019-05-12T13:23:46.335Z,78.90
2019-05-12T13:26:15.611Z,78.80
2019-05-12T13:28:52.996Z,78.80
2019-05-12T13:31:16.283Z,78.90
2019-05-12T13:33:49.534Z,79.00
2019-05-12T13:36:16.683Z,79.20
2019-05-12T13:38:45.971Z,79.30
2019-05-12T13:41:19.789Z,79.30
2019-05-12T13:43:54.495Z,79.40
2019-05-12T13:46:17.516Z,79.50
2019-05-12T13:48:49.936Z,79.60
2019-05-12T13:51:17.774Z,79.60
2019-05-12T13:53:50.236Z,79.80
2019-05-12T13:56:19.233Z,80.00
2019-05-12T13:58:49.043Z,80.30
2019-05-12T14:01:20.395Z,80.50
2019-05-12T14:03:50.864Z,80.60
2019-05-12T14:06:23.144Z,80.80
2019-05-12T14:08:53.646Z,80.90
2019-05-12T14:11:23.942Z,80.70
2019-05-12T14:13:53.453Z,80.70
2019-05-12T14:16:23.915Z,80.50
2019-05-12T14:18:57.060Z,80.50
2019-05-12T14:21:24.589Z,80.20
2019-05-12T14:23:54.074Z,80.40
2019-05-12T14:26:24.231Z,80.40
2019-05-12T14:28:53.723Z,80.40
2019-05-12T14:31:30.060Z,80.20
2019-05-12T14:33:54.115Z,80.00
2019-05-12T14:36:26.640Z,80.00
2019-05-12T14:38:54.411Z,79.80
2019-05-12T14:41:26.817Z,79.80
2019-05-12T14:44:01.703Z,79.90
2019-05-12T14:46:25.538Z,79.80
2019-05-12T14:48:54.782Z,79.90
2019-05-12T14:51:24.595Z,79.90
2019-05-12T14:53:53.902Z,79.80
2019-05-12T14:56:23.431Z,79.70
2019-05-12T14:58:56.637Z,79.60
2019-05-12T15:01:23.974Z,79.60
2019-05-12T15:03:54.770Z,79.60
2019-05-12T15:06:25.618Z,79.50
2019-05-12T15:08:55.137Z,79.40
2019-05-12T15:11:24.742Z,79.30
2019-05-12T15:13:54.226Z,79.40
2019-05-12T15:16:23.843Z,79.40
2019-05-12T15:18:54.171Z,79.40
2019-05-12T15:21:27.315Z,79.50
2019-05-12T15:23:54.566Z,80.10
2019-05-12T15:26:24.352Z,79.30
2019-05-12T15:28:54.397Z,79.50
2019-05-12T15:31:23.816Z,79.60
2019-05-12T15:33:53.096Z,79.60
2019-05-12T15:36:24.292Z,79.70
2019-05-12T15:38:55.767Z,79.70
2019-05-12T15:41:24.277Z,79.60
2019-05-12T15:43:55.729Z,79.50
2019-05-12T15:46:24.634Z,79.30
2019-05-12T15:48:54.017Z,79.20
2019-05-12T15:51:23.469Z,79.10
2019-05-12T15:53:57.366Z,79.10
2019-05-12T15:56:26.119Z,79.00
2019-05-12T15:58:55.734Z,78.80
2019-05-12T16:01:25.801Z,79.00
2019-05-12T16:03:55.092Z,78.80
2019-05-12T16:06:24.412Z,78.80
2019-05-12T16:08:53.781Z,78.80
2019-05-12T16:11:24.420Z,78.90
2019-05-12T16:13:59.159Z,78.80
2019-05-12T16:16:24.898Z,78.80
2019-05-12T16:18:54.305Z,79.00
2019-05-12T16:21:23.844Z,78.80
2019-05-12T16:23:53.516Z,78.70
2019-05-12T16:26:24.321Z,78.70
2019-05-12T16:29:02.541Z,79.70
2019-05-12T16:34:01.388Z,79.00
2019-05-12T16:36:29.996Z,79.30
2019-05-12T16:39:00.297Z,79.20
2019-05-12T16:41:30.061Z,79.10
2019-05-12T16:43:59.344Z,79.00
2019-05-12T16:46:28.980Z,79.00
2019-05-12T16:48:58.304Z,79.00
2019-05-12T16:51:27.632Z,79.00
2019-05-12T16:53:56.924Z,78.90
2019-05-12T16:56:29.696Z,78.80
2019-05-12T16:58:57.568Z,79.00
2019-05-12T17:01:29.272Z,79.20
2019-05-12T17:03:58.057Z,79.30
2019-05-12T17:06:28.708Z,79.10
2019-05-12T17:08:58.294Z,78.90
2019-05-12T17:11:30.881Z,78.80
2019-05-12T17:14:04.081Z,78.90
2019-05-12T17:16:35.390Z,79.00
2019-05-12T17:19:06.174Z,79.00
2019-05-12T17:21:33.543Z,79.00
2019-05-12T17:24:03.949Z,79.10
2019-05-12T17:26:33.543Z,79.10
2019-05-12T17:29:02.751Z,79.10
2019-05-12T17:31:33.832Z,79.20
2019-05-12T17:34:06.614Z,79.30
2019-05-12T17:36:34.556Z,79.50
2019-05-12T17:39:06.217Z,79.60
2019-05-12T17:41:40.513Z,79.60
2019-05-12T17:44:06.663Z,79.70
2019-05-12T17:46:38.088Z,79.70
2019-05-12T17:49:07.207Z,79.80
2019-05-12T17:51:36.531Z,79.90
2019-05-12T17:54:07.103Z,80.00
2019-05-12T17:56:38.569Z,80.10
2019-05-12T17:59:07.851Z,80.20
2019-05-12T18:01:37.178Z,80.30
2019-05-12T18:04:06.419Z,80.50
2019-05-12T18:06:35.690Z,80.50
2019-05-12T18:09:09.213Z,80.50
2019-05-12T18:11:37.675Z,80.70
2019-05-12T18:14:07.474Z,80.90
2019-05-12T18:16:36.906Z,80.90
2019-05-12T18:19:09.033Z,81.10
2019-05-12T18:21:37.166Z,81.20
2019-05-12T18:24:10.966Z,80.90
2019-05-12T18:26:37.495Z,81.00
2019-05-12T18:29:06.736Z,81.00
2019-05-12T18:31:36.470Z,81.10
2019-05-12T18:34:05.774Z,81.10
2019-05-12T18:36:35.126Z,81.10
2019-05-12T18:39:11.651Z,81.30
2019-05-12T18:41:37.970Z,81.40
2019-05-12T18:44:07.310Z,81.50
2019-05-12T18:46:44.957Z,81.50
2019-05-12T18:49:12.277Z,81.50
2019-05-12T18:51:38.542Z,81.50
2019-05-12T18:54:10.580Z,81.50
2019-05-12T18:56:38.905Z,81.70
2019-05-12T18:59:13.128Z,81.90
2019-05-12T19:01:39.591Z,82.00
2019-05-12T19:04:08.879Z,82.00
2019-05-12T19:06:38.162Z,82.30
2019-05-12T19:09:09.016Z,82.90
2019-05-12T19:11:42.143Z,82.10
2019-05-12T19:14:09.277Z,82.10
2019-05-12T19:16:38.545Z,82.10
2019-05-12T19:19:09.700Z,82.40
2019-05-12T19:21:38.861Z,82.20
2019-05-12T19:24:08.777Z,82.10
2019-05-12T19:26:40.466Z,81.90
2019-05-12T19:29:09.893Z,82.00
2019-05-12T19:31:45.218Z,81.90
2019-05-12T19:34:19.871Z,81.90
2019-05-12T19:36:45.045Z,81.90
2019-05-12T19:39:12.281Z,81.90
2019-05-12T19:41:43.677Z,82.10
2019-05-12T19:44:13.457Z,82.10
2019-05-12T19:46:47.675Z,82.10
2019-05-12T19:49:13.897Z,82.20
2019-05-12T19:51:43.792Z,82.20
2019-05-12T19:54:14.042Z,83.00
2019-05-12T19:56:43.577Z,82.20
2019-05-12T19:59:14.652Z,82.20
2019-05-12T20:01:44.559Z,82.30
2019-05-12T20:04:18.362Z,83.20
2019-05-12T20:06:44.917Z,82.40
2019-05-12T20:09:14.776Z,82.50
2019-05-12T20:11:44.176Z,82.50
2019-05-12T20:14:19.122Z,82.50
2019-05-12T20:16:44.437Z,82.60
2019-05-12T20:19:13.750Z,82.60
2019-05-12T20:21:43.806Z,82.60
2019-05-12T20:24:14.314Z,82.60
2019-05-12T20:26:44.133Z,82.70
2019-05-12T20:29:13.894Z,82.70
2019-05-12T20:31:48.446Z,82.70
2019-05-12T20:34:14.281Z,82.60
2019-05-12T20:36:44.347Z,82.40
2019-05-12T20:39:19.335Z,82.10
2019-05-12T20:41:45.945Z,82.80
2019-05-12T20:44:20.011Z,81.90
2019-05-12T20:46:47.192Z,81.80
2019-05-12T20:49:17.541Z,81.80
2019-05-12T20:51:48.358Z,81.70
2019-05-12T20:54:18.233Z,81.80
2019-05-12T20:56:53.085Z,81.70
2019-05-12T20:59:22.023Z,81.80
2019-05-12T21:01:49.603Z,81.80
2019-05-12T21:04:22.014Z,82.00
2019-05-12T21:06:49.812Z,82.00
2019-05-12T21:09:19.075Z,82.10
2019-05-12T21:11:48.431Z,82.20
2019-05-12T21:14:17.768Z,82.20
2019-05-12T21:16:47.123Z,82.10
2019-05-12T21:19:16.498Z,82.20
2019-05-12T21:21:45.748Z,82.00
2019-05-12T21:24:15.122Z,82.00
2019-05-12T21:26:44.367Z,81.90
2019-05-12T21:29:13.882Z,81.80
2019-05-12T21:31:44.540Z,81.70
2019-05-12T21:34:21.253Z,81.70
2019-05-12T21:36:45.027Z,81.70
2019-05-12T21:39:14.311Z,81.70
2019-05-12T21:41:50.469Z,81.60
2019-05-12T21:44:14.642Z,81.70
2019-05-12T21:46:56.690Z,81.70
2019-05-12T21:49:15.646Z,81.70
2019-05-12T21:51:45.167Z,81.60
2019-05-12T21:54:14.552Z,81.40
2019-05-12T21:56:49.020Z,81.30
2019-05-12T21:59:15.563Z,81.30
2019-05-12T22:01:45.954Z,81.40
2019-05-12T22:04:15.310Z,81.50
2019-05-12T22:06:44.678Z,81.40
2019-05-12T22:09:14.672Z,81.40
2019-05-12T22:11:50.994Z,80.80
2019-05-12T22:14:15.966Z,81.50
2019-05-12T22:16:47.498Z,81.60
2019-05-12T22:19:16.865Z,81.80
2019-05-12T22:21:49.240Z,81.70
2019-05-12T22:24:17.163Z,81.60
2019-05-12T22:26:46.806Z,81.50
2019-05-12T22:29:21.061Z,81.30
2019-05-12T22:31:48.184Z,81.40
2019-05-12T22:34:17.790Z,81.30
2019-05-12T22:36:55.212Z,81.30
2019-05-12T22:39:18.086Z,81.40
2019-05-12T22:41:47.347Z,81.40
2019-05-12T22:44:20.818Z,81.50
2019-05-12T22:46:47.554Z,81.60
2019-05-12T22:49:20.982Z,81.60
2019-05-12T22:51:47.882Z,81.70
2019-05-12T22:54:17.258Z,81.70
2019-05-12T22:56:49.600Z,81.60
2019-05-12T22:59:17.559Z,81.60
2019-05-12T23:01:46.998Z,81.50
2019-05-12T23:04:16.319Z,81.50
2019-05-12T23:06:46.759Z,81.40
2019-05-12T23:09:19.482Z,81.40
2019-05-12T23:11:47.357Z,81.30
2019-05-12T23:14:20.522Z,81.30
2019-05-12T23:16:47.633Z,81.20
2019-05-12T23:19:17.031Z,81.10
2019-05-12T23:21:49.238Z,81.20
2019-05-12T23:24:17.209Z,81.10
2019-05-12T23:26:48.039Z,81.10
2019-05-12T23:29:20.459Z,81.20
2019-05-12T23:31:48.493Z,81.10
2019-05-12T23:34:17.777Z,81.20
2019-05-12T23:36:50.457Z,81.20
2019-05-12T23:39:18.393Z,81.30
2019-05-12T23:41:47.689Z,81.20
2019-05-12T23:44:17.013Z,81.30
2019-05-12T23:46:46.328Z,81.40
2019-05-12T23:49:15.696Z,81.30
2019-05-12T23:51:44.981Z,81.20
2019-05-12T23:54:14.478Z,81.10
2019-05-12T23:56:44.447Z,81.10
2019-05-12T23:59:13.876Z,81.10
